Time;durP1;ratioP1;P1;durP2;ratioP2;P2;SDS_P1;SDS_P2;PMS_P1;PMS_P2;Temp;Humidity;BMP_temperature;BMP_pressure;BME280_temperature;BME280_humidity;BME280_pressure;Samples;Min_cycle;Max_cycle;Signal;HPM_P1;HPM_P2
2022/08/10 00:00:44;;;;;;;6.28;4.28;;;31.00;1.00;;;;;;5115237;28;20023;-47
2022/08/10 00:03:09;;;;;;;6.85;4.50;;;31.00;1.00;;;;;;5114458;28;20051;-46
2022/08/10 00:05:36;;;;;;;5.40;4.93;;;30.90;1.00;;;;;;5113565;28;20438;-45
2022/08/10 00:08:01;;;;;;;5.72;5.03;;;30.80;1.00;;;;;;5113963;28;20141;-46
2022/08/10 00:10:27;;;;;;;8.60;5.20;;;30.90;1.00;;;;;;5115196;28;20015;-47
2022/08/10 00:12:53;;;;;;;5.35;4.88;;;30.80;1.00;;;;;;5114428;28;20023;-45
2022/08/10 00:15:20;;;;;;;7.07;5.15;;;30.80;1.00;;;;;;5114893;28;20054;-45
2022/08/10 00:17:46;;;;;;;5.97;5.05;;;30.90;1.00;;;;;;5114210;28;20027;-45
2022/08/10 00:20:12;;;;;;;6.20;4.65;;;30.80;1.00;;;;;;5114814;28;20042;-45
2022/08/10 00:22:38;;;;;;;5.55;5.05;;;31.00;1.00;;;;;;5093646;28;20509;-48
2022/08/10 00:25:05;;;;;;;6.03;4.90;;;31.00;1.00;;;;;;5114817;28;20055;-45
2022/08/10 00:27:31;;;;;;;5.07;4.43;;;30.80;1.00;;;;;;5113853;28;20063;-46
2022/08/10 00:29:57;;;;;;;5.93;4.65;;;30.70;1.00;;;;;;5114395;28;20028;-45
2022/08/10 00:32:23;;;;;;;5.38;4.90;;;30.70;1.00;;;;;;5113756;28;20019;-45
2022/08/10 00:34:49;;;;;;;5.20;4.68;;;30.80;1.00;;;;;;5112823;28;20441;-45
2022/08/10 00:37:19;;;;;;;6.07;4.32;;;30.90;1.00;;;;;;5112673;28;20049;-45
2022/08/10 00:39:45;;;;;;;8.40;4.68;;;30.80;1.00;;;;;;5114240;28;20012;-45
2022/08/10 00:42:13;;;;;;;5.22;4.72;;;30.70;1.00;;;;;;5113652;28;20035;-45
2022/08/10 00:44:41;;;;;;;5.35;4.65;;;30.60;1.00;;;;;;5114127;28;20044;-46
2022/08/10 00:47:08;;;;;;;5.50;4.88;;;30.80;1.00;;;;;;5113505;28;20032;-49
2022/08/10 00:49:34;;;;;;;5.45;4.60;;;30.70;1.00;;;;;;5110335;28;20491;-49
2022/08/10 00:52:01;;;;;;;9.68;4.82;;;30.60;1.00;;;;;;5095831;28;20027;-45
2022/08/10 00:54:27;;;;;;;5.00;4.60;;;30.40;1.00;;;;;;5113456;28;20032;-45
2022/08/10 00:56:53;;;;;;;5.47;4.25;;;30.40;1.00;;;;;;5114334;28;20024;-46
2022/08/10 00:59:19;;;;;;;5.25;4.70;;;30.40;1.00;;;;;;5113478;28;20492;-45
2022/08/10 01:01:44;;;;;;;5.90;4.57;;;30.40;1.00;;;;;;5113076;28;20038;-45
2022/08/10 01:04:10;;;;;;;6.53;5.05;;;30.30;1.00;;;;;;5113323;28;20527;-46
2022/08/10 01:06:54;;;;;;;4.43;4.13;;;30.30;1.00;;;;;;5113935;28;20035;-46
2022/08/10 01:09:25;;;;;;;;;;;30.40;1.00;;;;;;5112022;28;20561;-45
2022/08/10 01:12:17;;;;;;;5.38;4.50;;;30.20;1.00;;;;;;5112185;28;19915;-45
2022/08/10 01:14:56;;;;;;;9.45;4.80;;;30.20;1.00;;;;;;5112998;28;20080;-45
2022/08/10 01:17:35;;;;;;;7.47;4.10;;;30.20;1.00;;;;;;5104168;28;20027;-47
2022/08/10 01:20:00;;;;;;;4.55;4.00;;;30.10;1.00;;;;;;5113481;28;20473;-45
2022/08/10 01:22:41;;;;;;;6.28;4.20;;;30.30;1.00;;;;;;5112800;28;20050;-45
2022/08/10 01:25:50;;;;;;;6.20;4.25;;;30.30;1.00;;;;;;5113651;28;20023;-45
2022/08/10 01:28:44;;;;;;;5.00;4.50;;;30.10;1.00;;;;;;5073995;28;20407;-45
2022/08/10 01:31:14;;;;;;;6.53;4.27;;;30.10;1.00;;;;;;5113089;28;20136;-45
2022/08/10 01:33:51;;;;;;;6.93;4.43;;;30.10;1.00;;;;;;5111346;28;20277;-45
2022/08/10 01:36:20;;;;;;;5.90;4.63;;;30.10;1.00;;;;;;5100594;28;20051;-50
2022/08/10 01:38:48;;;;;;;7.18;4.55;;;30.20;1.00;;;;;;5112363;28;20102;-45
2022/08/10 01:41:20;;;;;;;4.65;4.25;;;30.00;1.00;;;;;;5099045;28;20019;-45
2022/08/10 01:43:58;;;;;;;5.18;4.18;;;30.00;1.00;;;;;;5112337;28;20055;-45
2022/08/10 01:46:25;;;;;;;4.78;4.38;;;29.90;1.00;;;;;;5099587;28;20047;-44
2022/08/10 01:48:55;;;;;;;5.07;4.47;;;29.80;1.00;;;;;;5111666;28;20030;-45
2022/08/10 01:51:26;;;;;;;4.40;4.07;;;29.70;1.00;;;;;;5113044;28;20115;-45
2022/08/10 01:53:57;;;;;;;4.60;4.18;;;29.80;1.00;;;;;;5112438;28;20059;-45
2022/08/10 01:56:27;;;;;;;4.82;4.43;;;29.70;1.00;;;;;;5094549;28;20024;-45
2022/08/10 01:59:01;;;;;;;4.60;3.90;;;29.90;1.00;;;;;;5111170;28;20107;-45
2022/08/10 02:01:31;;;;;;;5.18;4.68;;;29.90;1.00;;;;;;5111212;28;20518;-49
2022/08/10 02:04:02;;;;;;;6.95;4.57;;;30.00;1.00;;;;;;5111222;28;20028;-45
2022/08/10 02:06:31;;;;;;;4.35;3.95;;;29.90;1.00;;;;;;5112737;28;20141;-47
2022/08/10 02:08:59;;;;;;;6.38;4.05;;;29.80;1.00;;;;;;5112210;28;20149;-47
2022/08/10 02:11:29;;;;;;;4.50;4.13;;;29.80;1.00;;;;;;5112647;28;20031;-45
2022/08/10 02:13:56;;;;;;;4.90;4.40;;;29.70;1.00;;;;;;5111948;28;20031;-47
2022/08/10 02:16:25;;;;;;;4.53;4.13;;;29.80;1.00;;;;;;5112539;28;20032;-46
2022/08/10 02:18:53;;;;;;;5.88;4.63;;;29.80;1.00;;;;;;5111910;28;20031;-48
2022/08/10 02:21:21;;;;;;;4.80;4.13;;;29.70;1.00;;;;;;5112377;28;20028;-44
2022/08/10 02:23:48;;;;;;;4.30;3.88;;;29.60;1.00;;;;;;5111641;28;20032;-45
2022/08/10 02:26:14;;;;;;;4.32;3.92;;;29.70;1.00;;;;;;5107244;28;20020;-45
2022/08/10 02:28:41;;;;;;;4.53;4.10;;;29.70;1.00;;;;;;5093274;28;20621;-46
2022/08/10 02:31:11;;;;;;;4.38;3.92;;;29.70;1.00;;;;;;5080172;28;20035;-46
2022/08/10 02:33:39;;;;;;;4.50;4.10;;;29.80;1.00;;;;;;5103105;28;20031;-44
2022/08/10 02:36:07;;;;;;;5.45;4.15;;;29.80;1.00;;;;;;5112188;28;20069;-45
2022/08/10 02:38:41;;;;;;;4.18;3.78;;;29.80;1.00;;;;;;5109651;28;20043;-45
2022/08/10 02:41:37;;;;;;;5.20;4.45;;;29.80;1.00;;;;;;5110586;28;20031;-46
2022/08/10 02:44:08;;;;;;;5.20;4.70;;;29.80;1.00;;;;;;5111274;28;20048;-45
2022/08/10 02:46:40;;;;;;;4.95;4.45;;;29.80;1.00;;;;;;5112197;28;20011;-45
2022/08/10 02:49:16;;;;;;;5.00;4.47;;;29.60;1.00;;;;;;5093057;28;20126;-45
2022/08/10 02:51:53;;;;;;;4.68;4.38;;;29.60;1.00;;;;;;5112161;28;20346;-44
2022/08/10 02:54:25;;;;;;;5.03;4.63;;;29.80;1.00;;;;;;5111185;28;20035;-48
2022/08/10 02:57:15;;;;;;;6.10;4.80;;;29.80;1.00;;;;;;5112131;28;20019;-45
2022/08/10 02:59:52;;;;;;;4.78;4.38;;;29.70;1.00;;;;;;5098833;28;20082;-45
2022/08/10 03:02:33;;;;;;;4.88;4.47;;;29.50;1.00;;;;;;5111711;28;20039;-45
2022/08/10 03:05:13;;;;;;;5.05;4.65;;;29.50;1.00;;;;;;5111900;28;20445;-45
2022/08/10 03:07:45;;;;;;;5.60;4.53;;;29.50;1.00;;;;;;5111182;28;20118;-46
2022/08/10 03:10:29;;;;;;;4.90;4.55;;;29.50;1.00;;;;;;5097838;28;20034;-45
2022/08/10 03:12:59;;;;;;;5.13;4.68;;;29.30;1.00;;;;;;5110495;28;20078;-46
2022/08/10 03:15:28;;;;;;;4.97;4.68;;;29.30;1.00;;;;;;5112103;28;20115;-45
2022/08/10 03:17:55;;;;;;;8.20;5.40;;;29.30;1.00;;;;;;5110726;28;20063;-44
2022/08/10 03:20:22;;;;;;;5.10;4.57;;;29.30;1.00;;;;;;5111490;28;20088;-45
2022/08/10 03:22:52;;;;;;;5.78;4.95;;;29.20;1.00;;;;;;5111239;28;20035;-44
2022/08/10 03:25:21;;;;;;;5.25;4.85;;;29.20;1.00;;;;;;5111970;28;20362;-45
2022/08/10 03:27:48;;;;;;;6.90;4.97;;;29.20;1.00;;;;;;5111017;28;20028;-45
2022/08/10 03:30:14;;;;;;;6.20;5.72;;;29.10;1.00;;;;;;5097283;28;20434;-45
2022/08/10 03:32:42;;;;;;;6.38;5.80;;;29.00;1.00;;;;;;5092310;28;20028;-48
2022/08/10 03:35:08;;;;;;;5.38;4.95;;;28.90;1.00;;;;;;5111830;28;20028;-45
2022/08/10 03:37:34;;;;;;;8.57;5.78;;;28.90;1.00;;;;;;5111519;28;20441;-46
2022/08/10 03:40:00;;;;;;;6.30;5.57;;;28.90;1.00;;;;;;5111396;28;20111;-45
2022/08/10 03:42:27;;;;;;;5.32;4.88;;;29.00;1.00;;;;;;5109985;28;20126;-47
2022/08/10 03:44:54;;;;;;;5.30;4.90;;;28.80;1.00;;;;;;5110785;28;20485;-47
2022/08/10 03:47:22;;;;;;;5.10;4.70;;;28.80;1.00;;;;;;5111338;28;20380;-44
2022/08/10 03:49:49;;;;;;;5.22;4.70;;;28.90;1.00;;;;;;5110637;28;20104;-45
2022/08/10 03:52:16;;;;;;;4.53;4.13;;;29.00;1.00;;;;;;5111392;28;20430;-47
2022/08/10 03:54:42;;;;;;;4.60;4.30;;;28.90;1.00;;;;;;5110783;28;20019;-47
2022/08/10 03:57:09;;;;;;;5.32;4.45;;;28.90;1.00;;;;;;5111452;28;20050;-45
2022/08/10 03:59:35;;;;;;;4.47;4.07;;;28.80;1.00;;;;;;5109929;28;20020;-44
2022/08/10 04:02:02;;;;;;;5.25;4.40;;;28.80;1.00;;;;;;5111469;28;20449;-44
2022/08/10 04:04:28;;;;;;;4.75;4.32;;;28.80;1.00;;;;;;5110530;28;20035;-45
2022/08/10 04:06:56;;;;;;;6.03;4.28;;;28.80;1.00;;;;;;5111627;28;20020;-46
2022/08/10 04:09:24;;;;;;;4.80;4.40;;;28.60;1.00;;;;;;5110539;28;20114;-44
2022/08/10 04:11:50;;;;;;;5.22;4.78;;;28.60;1.00;;;;;;5111818;28;20011;-45
2022/08/10 04:14:15;;;;;;;4.95;4.18;;;28.70;1.00;;;;;;5113497;28;20020;-46
2022/08/10 04:16:41;;;;;;;4.13;3.70;;;28.50;1.00;;;;;;5113668;28;20073;-46
2022/08/10 04:19:07;;;;;;;4.50;4.10;;;28.70;1.00;;;;;;5114047;28;20039;-45
2022/08/10 04:21:39;;;;;;;4.38;4.03;;;28.80;1.00;;;;;;5114703;28;20171;-47
2022/08/10 04:24:08;;;;;;;3.85;3.55;;;28.80;1.00;;;;;;5114067;28;20020;-45
2022/08/10 04:26:34;;;;;;;5.10;4.60;;;28.70;1.00;;;;;;5114664;28;20015;-45
2022/08/10 04:29:00;;;;;;;4.22;3.90;;;28.90;1.00;;;;;;5113254;28;20028;-45
2022/08/10 04:31:27;;;;;;;4.50;4.10;;;28.70;1.00;;;;;;5114502;28;20047;-45
2022/08/10 04:33:54;;;;;;;4.50;4.18;;;28.90;1.00;;;;;;5113923;28;20028;-45
2022/08/10 04:36:21;;;;;;;6.13;3.83;;;28.90;1.00;;;;;;5096094;28;20068;-45
2022/08/10 04:38:50;;;;;;;6.43;4.10;;;28.80;1.00;;;;;;5113799;28;20483;-45
2022/08/10 04:41:16;;;;;;;4.40;4.10;;;28.90;1.00;;;;;;5114399;28;20024;-45
2022/08/10 04:43:42;;;;;;;4.53;4.18;;;29.00;1.00;;;;;;5113365;28;20509;-47
2022/08/10 04:46:07;;;;;;;8.43;4.18;;;29.00;1.00;;;;;;5114218;28;20047;-46
2022/08/10 04:48:33;;;;;;;6.75;3.60;;;29.00;1.00;;;;;;5113686;28;20442;-45
2022/08/10 04:50:58;;;;;;;5.85;3.80;;;28.90;1.00;;;;;;5114162;28;20016;-45
2022/08/10 04:53:24;;;;;;;4.15;3.80;;;28.80;1.00;;;;;;5112405;28;20483;-47
2022/08/10 04:55:50;;;;;;;6.85;3.45;;;29.00;1.00;;;;;;5114081;28;20029;-46
2022/08/10 04:58:16;;;;;;;3.63;3.33;;;29.10;1.00;;;;;;5112279;28;20023;-45
2022/08/10 05:00:41;;;;;;;6.38;3.92;;;29.10;1.00;;;;;;5114207;28;20465;-45
2022/08/10 05:03:07;;;;;;;4.43;3.47;;;28.90;1.00;;;;;;5109371;28;20089;-44
2022/08/10 05:05:32;;;;;;;4.90;3.17;;;28.70;1.00;;;;;;5107083;28;20338;-45
2022/08/10 05:07:58;;;;;;;4.32;3.72;;;28.70;1.00;;;;;;5112921;28;20030;-45
2022/08/10 05:10:24;;;;;;;5.28;3.80;;;28.50;1.00;;;;;;5113820;28;20449;-46
2022/08/10 05:12:49;;;;;;;5.38;3.88;;;28.70;1.00;;;;;;5112145;28;20039;-45
2022/08/10 05:15:17;;;;;;;3.42;3.13;;;28.60;1.00;;;;;;5113945;28;20020;-45
2022/08/10 05:17:44;;;;;;;5.40;3.67;;;28.60;1.00;;;;;;5112885;28;20047;-46
2022/08/10 05:20:11;;;;;;;5.93;4.28;;;28.60;1.00;;;;;;5088049;28;20173;-45
2022/08/10 05:22:42;;;;;;;4.38;3.78;;;28.50;1.00;;;;;;5106597;28;20388;-48
2022/08/10 05:25:16;;;;;;;5.68;4.00;;;28.50;1.00;;;;;;5112772;28;20031;-45
2022/08/10 05:27:42;;;;;;;4.53;3.72;;;28.60;1.00;;;;;;5112094;28;20108;-46
2022/08/10 05:30:10;;;;;;;3.80;3.42;;;28.60;1.00;;;;;;5113472;28;20503;-45
2022/08/10 05:32:36;;;;;;;3.92;3.42;;;28.60;1.00;;;;;;5113429;28;20023;-47
2022/08/10 05:35:02;;;;;;;6.57;3.47;;;28.80;1.00;;;;;;5112386;28;20209;-45
2022/08/10 05:37:30;;;;;;;4.57;4.18;;;28.70;1.00;;;;;;5113509;28;20031;-46
2022/08/10 05:39:56;;;;;;;8.05;4.10;;;28.60;1.00;;;;;;5112636;28;20477;-45
2022/08/10 05:42:22;;;;;;;5.30;3.70;;;28.60;1.00;;;;;;5095180;28;20486;-45
2022/08/10 05:44:48;;;;;;;4.90;3.70;;;28.60;1.00;;;;;;5103854;28;20044;-47
2022/08/10 05:47:14;;;;;;;5.20;3.85;;;28.70;1.00;;;;;;5092613;28;20378;-45
2022/08/10 05:49:40;;;;;;;5.18;4.38;;;28.70;1.00;;;;;;5108359;28;20031;-44
2022/08/10 05:52:06;;;;;;;7.03;4.30;;;28.80;1.00;;;;;;5111917;28;20130;-48
2022/08/10 05:54:32;;;;;;;7.22;4.03;;;28.70;1.00;;;;;;5107210;28;20390;-45
2022/08/10 05:56:57;;;;;;;3.95;3.42;;;28.70;1.00;;;;;;5111151;28;20091;-46
2022/08/10 05:59:30;;;;;;;10.13;4.50;;;28.60;1.00;;;;;;5113000;28;20119;-45
2022/08/10 06:01:58;;;;;;;6.07;4.10;;;28.60;1.00;;;;;;5112062;28;20023;-45
2022/08/10 06:04:29;;;;;;;6.93;4.57;;;28.60;1.00;;;;;;5113067;28;20385;-45
2022/08/10 06:06:56;;;;;;;8.98;4.32;;;28.70;1.00;;;;;;5111700;28;20465;-45
2022/08/10 06:09:24;;;;;;;5.57;3.95;;;28.70;1.00;;;;;;5112735;28;20030;-45
2022/08/10 06:11:52;;;;;;;3.97;3.65;;;28.70;1.00;;;;;;5110892;28;20058;-47
2022/08/10 06:17:05;;;;;;;8.85;3.63;;;28.70;1.00;;;;;;5111880;28;20500;-44
2022/08/10 06:19:32;;;;;;;5.45;3.22;;;28.80;1.00;;;;;;5112520;28;20027;-46
2022/08/10 06:22:00;;;;;;;3.65;3.17;;;29.00;1.00;;;;;;5111142;28;20043;-45
2022/08/10 06:24:30;;;;;;;4.30;3.22;;;28.80;1.00;;;;;;5108971;28;20030;-45
2022/08/10 06:26:57;;;;;;;4.90;2.90;;;28.90;1.00;;;;;;5108342;28;20035;-47
2022/08/10 06:29:23;;;;;;;3.65;3.33;;;28.80;1.00;;;;;;5112310;28;20027;-45
2022/08/10 06:31:52;;;;;;;3.25;2.75;;;28.70;1.00;;;;;;5111431;28;20162;-49
2022/08/10 06:34:25;;;;;;;4.55;2.95;;;28.70;1.00;;;;;;5112177;28;20032;-48
2022/08/10 06:36:53;;;;;;;5.30;3.53;;;28.50;1.00;;;;;;5111490;28;20351;-48
2022/08/10 06:39:19;;;;;;;4.50;3.20;;;28.50;1.00;;;;;;5112294;28;20027;-45
2022/08/10 06:41:48;;;;;;;6.20;3.35;;;28.40;1.00;;;;;;5110662;28;20113;-45
2022/08/10 06:44:24;;;;;;;3.33;3.00;;;28.30;1.00;;;;;;5112060;28;20044;-45
2022/08/10 06:46:53;;;;;;;5.90;2.78;;;28.30;1.00;;;;;;5093472;28;20032;-46
2022/08/10 06:49:21;;;;;;;4.93;3.25;;;28.30;1.00;;;;;;5112042;28;20038;-46
2022/08/10 06:51:52;;;;;;;3.90;2.88;;;28.40;1.00;;;;;;5111158;28;20032;-45
2022/08/10 06:54:22;;;;;;;4.90;2.80;;;28.40;1.00;;;;;;5111045;28;20016;-47
2022/08/10 06:56:51;;;;;;;3.03;2.75;;;28.30;1.00;;;;;;5111339;28;20039;-46
2022/08/10 06:59:19;;;;;;;3.33;2.90;;;28.40;1.00;;;;;;5112159;28;20016;-50
2022/08/10 07:01:49;;;;;;;6.35;2.75;;;28.60;1.00;;;;;;5110997;28;20412;-48
2022/08/10 07:04:28;;;;;;;2.72;2.50;;;28.50;1.00;;;;;;5111889;28;20027;-45
2022/08/10 07:06:58;;;;;;;5.25;3.17;;;28.60;1.00;;;;;;5111357;28;20480;-44
2022/08/10 07:09:26;;;;;;;9.23;3.10;;;28.60;1.00;;;;;;5110887;28;20027;-45
2022/08/10 07:11:54;;;;;;;4.47;2.53;;;28.60;1.00;;;;;;5089287;28;20069;-45
2022/08/10 07:14:21;;;;;;;3.80;2.50;;;28.60;1.00;;;;;;5112031;28;20020;-46
2022/08/10 07:16:47;;;;;;;3.78;2.58;;;28.50;1.00;;;;;;5111682;28;20129;-44
2022/08/10 07:19:14;;;;;;;5.82;3.00;;;28.40;1.00;;;;;;5111283;28;20031;-45
2022/08/10 07:21:42;;;;;;;3.15;2.45;;;28.40;1.00;;;;;;5093432;28;20358;-45
2022/08/10 07:24:10;;;;;;;3.35;2.40;;;28.60;1.00;;;;;;5111037;28;20542;-46
2022/08/10 07:26:38;;;;;;;2.85;2.60;;;28.40;1.00;;;;;;5093438;28;20385;-45
2022/08/10 07:29:05;;;;;;;4.03;3.00;;;28.50;1.00;;;;;;5110808;28;20042;-46
2022/08/10 07:31:31;;;;;;;5.55;3.03;;;28.50;1.00;;;;;;5111960;28;20054;-45
2022/08/10 07:33:58;;;;;;;4.20;2.88;;;28.70;1.00;;;;;;5111075;28;20100;-45
2022/08/10 07:36:26;;;;;;;4.13;3.35;;;28.60;1.00;;;;;;5111768;28;20031;-45
2022/08/10 07:38:54;;;;;;;7.32;3.53;;;28.80;1.00;;;;;;5109907;28;20069;-45
2022/08/10 07:41:22;;;;;;;7.38;3.15;;;28.60;1.00;;;;;;5112017;28;20092;-45
2022/08/10 07:43:50;;;;;;;7.82;3.40;;;28.60;1.00;;;;;;5108124;28;20066;-45
2022/08/10 07:46:18;;;;;;;4.45;3.08;;;28.70;1.00;;;;;;5111589;28;20012;-47
2022/08/10 07:48:48;;;;;;;9.20;3.08;;;28.60;1.00;;;;;;5113861;28;20063;-45
2022/08/10 07:51:17;;;;;;;4.75;3.60;;;28.70;1.00;;;;;;5115758;28;20018;-47
2022/08/10 07:53:49;;;;;;;5.47;2.80;;;28.80;1.00;;;;;;5115839;28;20042;-46
2022/08/10 07:56:17;;;;;;;6.38;3.05;;;28.80;1.00;;;;;;5115680;28;20396;-45
2022/08/10 07:58:50;;;;;;;7.85;3.70;;;28.90;1.00;;;;;;5115443;28;20034;-45
2022/08/10 08:01:17;;;;;;;5.85;3.33;;;28.90;1.00;;;;;;5115524;28;20148;-46
2022/08/10 08:03:44;;;;;;;7.20;3.45;;;28.90;1.00;;;;;;5114088;28;20027;-47
2022/08/10 08:06:12;;;;;;;4.78;3.35;;;28.80;1.00;;;;;;5112907;28;20027;-48
2022/08/10 08:08:39;;;;;;;6.03;3.90;;;28.90;1.00;;;;;;5113500;28;20027;-47
2022/08/10 08:11:06;;;;;;;6.68;3.40;;;28.90;1.00;;;;;;5111325;28;20023;-46
2022/08/10 08:13:34;;;;;;;5.38;3.47;;;28.90;1.00;;;;;;5115208;28;20130;-46
2022/08/10 08:16:03;;;;;;;4.70;3.45;;;28.90;1.00;;;;;;5113487;28;20027;-47
2022/08/10 08:18:31;;;;;;;6.43;3.42;;;29.00;1.00;;;;;;5115138;28;20020;-46
2022/08/10 08:20:57;;;;;;;4.95;3.40;;;29.10;1.00;;;;;;5114079;28;20028;-46
2022/08/10 08:23:24;;;;;;;4.35;3.08;;;29.00;1.00;;;;;;5114166;28;20114;-46
2022/08/10 08:25:52;;;;;;;5.43;3.53;;;29.20;1.00;;;;;;5113748;28;20023;-46
2022/08/10 08:28:18;;;;;;;6.32;3.15;;;29.20;1.00;;;;;;5114089;28;20392;-46
2022/08/10 08:30:45;;;;;;;5.57;3.47;;;29.30;1.00;;;;;;5114128;28;20023;-46
2022/08/10 08:33:12;;;;;;;6.18;3.05;;;29.40;1.00;;;;;;5114791;28;20372;-45
2022/08/10 08:35:38;;;;;;;8.18;3.30;;;29.30;1.00;;;;;;5113930;28;20026;-49
2022/08/10 08:38:05;;;;;;;6.47;3.92;;;29.40;1.00;;;;;;5115005;28;20068;-46
2022/08/10 08:40:37;;;;;;;3.95;3.50;;;29.40;1.00;;;;;;5106594;28;20036;-46
2022/08/10 08:43:17;;;;;;;6.28;3.25;;;29.60;1.00;;;;;;5114424;28;20046;-47
2022/08/10 08:46:27;;;;;;;7.13;3.20;;;29.60;1.00;;;;;;5085883;28;20032;-47
2022/08/10 08:49:12;;;;;;;7.38;3.30;;;29.80;1.00;;;;;;5110021;28;20408;-47
2022/08/10 08:51:56;;;;;;;;;;;29.80;1.00;;;;;;5107624;28;20319;-49
2022/08/10 08:54:46;;;;;;;4.20;2.72;;;29.90;1.00;;;;;;5113437;28;19904;-48
2022/08/10 08:57:17;;;;;;;9.07;3.47;;;29.70;1.00;;;;;;5096873;28;20099;-48
2022/08/10 08:59:55;;;;;;;6.25;3.53;;;29.80;1.00;;;;;;5096611;28;20165;-46
2022/08/10 09:02:42;;;;;;;4.70;3.25;;;29.80;1.00;;;;;;5093489;28;20537;-48
2022/08/10 09:05:41;;;;;;;5.15;3.38;;;29.90;1.00;;;;;;5096907;28;20434;-46
2022/08/10 09:08:12;;;;;;;4.65;3.17;;;30.10;1.00;;;;;;5108868;28;20062;-47
2022/08/10 09:11:07;;;;;;;4.40;3.03;;;30.10;1.00;;;;;;5113294;28;20421;-46
2022/08/10 09:14:05;;;;;;;6.05;3.33;;;30.00;1.00;;;;;;5113286;28;20023;-46
2022/08/10 09:16:49;;;;;;;9.27;3.10;;;30.00;1.00;;;;;;5110403;28;20023;-48
2022/08/10 09:19:40;;;;;;;8.77;4.03;;;30.10;1.00;;;;;;5113579;28;20034;-46
2022/08/10 09:22:30;;;;;;;9.43;2.95;;;30.20;1.00;;;;;;5103673;28;20036;-46
2022/08/10 09:25:19;;;;;;;4.55;3.25;;;30.40;1.00;;;;;;5112964;28;20038;-46
2022/08/10 09:27:54;;;;;;;5.53;3.33;;;30.50;1.00;;;;;;5113963;28;20392;-46
2022/08/10 09:30:31;;;;;;;4.68;3.38;;;30.70;1.00;;;;;;5112898;28;20031;-45
2022/08/10 09:33:22;;;;;;;5.00;3.38;;;31.20;1.00;;;;;;5113661;28;20035;-45
2022/08/10 09:35:59;;;;;;;3.75;3.13;;;31.10;1.00;;;;;;5112807;28;20027;-46
2022/08/10 09:38:44;;;;;;;5.40;3.38;;;31.20;1.00;;;;;;5113412;28;20102;-45
2022/08/10 09:41:27;;;;;;;5.15;3.00;;;31.60;1.00;;;;;;5112753;28;20400;-46
2022/08/10 09:44:07;;;;;;;6.80;3.45;;;31.80;1.00;;;;;;5100604;28;20524;-46
2022/08/10 09:46:47;;;;;;;7.25;3.20;;;31.40;1.00;;;;;;5110674;28;20098;-46
2022/08/10 09:49:53;;;;;;;8.00;3.17;;;31.90;1.00;;;;;;5113603;28;20028;-50
2022/08/10 09:52:47;;;;;;;5.07;2.80;;;32.10;1.00;;;;;;5113378;28;20122;-47
2022/08/10 09:55:21;;;;;;;4.22;2.97;;;32.10;1.00;;;;;;5111740;28;20023;-46
2022/08/10 09:58:02;;;;;;;6.70;3.60;;;32.10;1.00;;;;;;5113223;28;20020;-46
2022/08/10 10:00:46;;;;;;;5.70;3.67;;;31.90;1.00;;;;;;5112258;28;20028;-47
2022/08/10 10:03:35;;;;;;;6.70;3.38;;;32.20;1.00;;;;;;5113089;28;20035;-48
2022/08/10 10:06:28;;;;;;;5.80;3.30;;;32.50;1.00;;;;;;5101366;28;20368;-45
2022/08/10 10:09:09;;;;;;;5.80;2.97;;;32.50;1.00;;;;;;5112806;28;20047;-48
2022/08/10 10:11:56;;;;;;;4.35;3.17;;;32.10;1.00;;;;;;5083415;28;20430;-47
2022/08/10 10:15:19;;;;;;;3.42;3.13;;;32.30;1.00;;;;;;5112564;28;20023;-46
2022/08/10 10:17:41;;;;;;;7.38;3.45;;;32.20;1.00;;;;;;5109038;28;20027;-47
2022/08/10 10:20:25;;;;;;;5.55;3.33;;;32.20;1.00;;;;;;5110978;28;20120;-50
2022/08/10 10:22:50;;;;;;;;;;;32.00;1.00;;;;;;5098014;28;20043;-49
2022/08/10 10:26:10;;;;;;;8.05;3.20;;;31.70;1.00;;;;;;5111454;28;19971;-46
2022/08/10 10:29:03;;;;;;;7.85;3.58;;;32.30;1.00;;;;;;5020827;28;20037;-49
2022/08/10 10:31:32;;;;;;;3.60;2.97;;;32.00;1.00;;;;;;5103896;28;20031;-46
2022/08/10 10:34:01;;;;;;;5.47;2.78;;;32.10;1.00;;;;;;5112721;28;20035;-46
2022/08/10 10:36:28;;;;;;;6.25;3.05;;;32.60;1.00;;;;;;5111558;28;20019;-45
2022/08/10 10:38:56;;;;;;;4.78;2.80;;;33.20;1.00;;;;;;5112516;28;20364;-50
2022/08/10 10:41:39;;;;;;;2.90;2.70;;;33.40;1.00;;;;;;5110486;28;20020;-46
2022/08/10 10:44:31;;;;;;;8.00;3.28;;;32.60;1.00;;;;;;5112172;28;20079;-47
2022/08/10 10:47:05;;;;;;;2.92;2.58;;;32.60;1.00;;;;;;5105912;28;20027;-47
2022/08/10 10:50:17;;;;;;;6.18;3.10;;;32.60;1.00;;;;;;5110460;28;20076;-48
2022/08/10 10:53:17;;;;;;;3.65;2.72;;;32.50;1.00;;;;;;5022770;28;20068;-47
2022/08/10 10:56:08;;;;;;;4.55;2.75;;;32.50;1.00;;;;;;5015902;28;20204;-47
2022/08/10 10:59:04;;;;;;;4.75;3.65;;;32.70;1.00;;;;;;5092804;28;20023;-47
2022/08/10 11:02:14;;;;;;;3.47;2.90;;;33.20;1.00;;;;;;5111060;28;20088;-46
2022/08/10 11:05:07;;;;;;;6.85;2.92;;;33.10;1.00;;;;;;5066569;28;20047;-45
2022/08/10 11:07:37;;;;;;;3.20;2.90;;;32.80;1.00;;;;;;5109951;28;20131;-48
2022/08/10 11:10:12;;;;;;;4.97;3.00;;;32.80;1.00;;;;;;5111193;28;20044;-46
2022/08/10 11:12:59;;;;;;;3.38;2.53;;;32.70;1.00;;;;;;5110672;28;20414;-45
2022/08/10 11:15:37;;;;;;;5.43;2.53;;;33.00;1.00;;;;;;5111347;28;20039;-46
2022/08/10 11:18:07;;;;;;;4.30;2.88;;;33.00;1.00;;;;;;5099362;28;20028;-46
2022/08/10 11:20:39;;;;;;;3.30;3.00;;;34.00;1.00;;;;;;5110681;28;20032;-46
2022/08/10 11:23:24;;;;;;;3.10;2.60;;;34.00;1.00;;;;;;5116132;28;20078;-47
2022/08/10 11:26:46;;;;;;;2.92;2.70;;;33.80;1.00;;;;;;5115185;28;20023;-48
2022/08/10 11:29:31;;;;;;;4.05;3.00;;;34.50;1.00;;;;;;5033109;28;20372;-46
2022/08/10 11:32:00;;;;;;;4.18;2.40;;;34.40;1.00;;;;;;5032035;28;20034;-47
2022/08/10 11:34:58;;;;;;;3.97;2.63;;;34.20;1.00;;;;;;5083997;28;20035;-46
2022/08/10 11:37:48;;;;;;;2.95;2.60;;;34.30;1.00;;;;;;5114202;28;20118;-47
2022/08/10 11:40:26;;;;;;;3.92;2.50;;;34.70;1.00;;;;;;5103836;28;20073;-48
2022/08/10 11:42:55;;;;;;;4.40;2.83;;;34.80;1.00;;;;;;5111354;28;20054;-48
2022/08/10 11:45:30;;;;;;;2.58;2.45;;;34.90;1.00;;;;;;5116438;28;20377;-45
2022/08/10 11:48:05;;;;;;;4.10;3.17;;;34.80;1.00;;;;;;5114407;28;20028;-47
2022/08/10 11:50:37;;;;;;;3.20;2.90;;;35.10;1.00;;;;;;5115483;28;20065;-47
2022/08/10 11:53:14;;;;;;;3.30;2.60;;;35.00;1.00;;;;;;5114583;28;20028;-48
2022/08/10 11:55:48;;;;;;;6.10;3.50;;;36.10;1.00;;;;;;5115448;28;20093;-45
2022/08/10 12:01:05;;;;;;;3.70;3.40;;;37.80;1.00;;;;;;5114215;28;20110;-49
2022/08/10 12:03:32;;;;;;;3.70;3.08;;;39.20;1.00;;;;;;5115117;28;20031;-46
2022/08/10 12:05:59;;;;;;;4.68;3.60;;;40.30;1.00;;;;;;5113644;28;20031;-46
2022/08/10 12:08:27;;;;;;;4.85;3.60;;;40.70;1.00;;;;;;5113405;28;20035;-46
2022/08/10 12:10:53;;;;;;;7.68;3.85;;;40.40;1.00;;;;;;5114268;28;20019;-47
2022/08/10 12:13:26;;;;;;;4.03;3.72;;;40.20;1.00;;;;;;5114923;28;20027;-48
2022/08/10 12:16:01;;;;;;;4.05;3.70;;;39.20;1.00;;;;;;5104768;28;20391;-46
2022/08/10 12:18:37;;;;;;;4.95;4.22;;;39.70;1.00;;;;;;5113963;28;20024;-50
2022/08/10 12:21:10;;;;;;;4.40;4.05;;;40.20;1.00;;;;;;5114164;28;20031;-50
2022/08/10 12:23:41;;;;;;;;;;;42.90;1.00;;;;;;5115510;28;20047;-47
2022/08/10 12:26:15;;;;;;;11.15;5.68;;;45.00;99.90;;;;;;5113772;28;20426;-52
2022/08/10 12:28:53;;;;;;;5.05;4.63;;;45.50;99.90;;;;;;5114770;28;20019;-51
2022/08/10 12:31:40;;;;;;;5.07;4.78;;;45.50;99.90;;;;;;5113811;28;20079;-50
2022/08/10 12:34:21;;;;;;;8.57;6.20;;;45.90;99.90;;;;;;5079446;28;20036;-55
2022/08/10 12:37:01;;;;;;;6.45;4.95;;;45.80;99.90;;;;;;5107478;28;20027;-46
2022/08/10 12:39:31;;;;;;;5.57;5.15;;;44.80;99.90;;;;;;5114600;28;20020;-47
2022/08/10 12:42:09;;;;;;;5.22;4.82;;;43.40;1.00;;;;;;5113491;28;20039;-49
2022/08/10 12:44:44;;;;;;;6.50;5.47;;;42.40;1.00;;;;;;5114571;28;20134;-45
2022/08/10 12:47:39;;;;;;;5.90;5.43;;;42.50;1.00;;;;;;5113621;28;20020;-47
2022/08/10 12:50:22;;;;;;;5.72;5.43;;;41.40;1.00;;;;;;5114370;28;20023;-46
2022/08/10 12:52:59;;;;;;;7.82;6.18;;;42.00;1.00;;;;;;5107824;28;20020;-46
2022/08/10 12:55:26;;;;;;;6.18;5.68;;;42.00;1.00;;;;;;5114278;28;20031;-48
2022/08/10 12:57:55;;;;;;;6.57;5.97;;;41.10;1.00;;;;;;5095086;28;20051;-46
2022/08/10 13:00:29;;;;;;;6.70;6.10;;;41.30;1.00;;;;;;5113209;28;20486;-48
2022/08/10 13:02:56;;;;;;;6.43;6.00;;;39.80;1.00;;;;;;5108182;28;20032;-48
2022/08/10 13:05:25;;;;;;;6.38;5.90;;;38.60;1.00;;;;;;5114085;28;20546;-49
2022/08/10 13:09:07;;;;;;;5.78;5.38;;;40.30;1.00;;;;;;5113316;28;20055;-47
2022/08/10 13:10:47;;;;;;;6.53;6.05;;;42.30;1.00;;;;;;5113814;28;20416;-46
2022/08/10 13:13:16;;;;;;;6.55;6.10;;;44.20;99.90;;;;;;5112470;28;20080;-49
2022/08/10 13:15:45;;;;;;;6.80;6.32;;;44.60;99.90;;;;;;5114099;28;20015;-49
2022/08/10 13:18:14;;;;;;;7.05;6.63;;;45.50;99.90;;;;;;5095049;28;20480;-46
2022/08/10 13:20:40;;;;;;;6.47;6.18;;;47.30;99.90;;;;;;5113909;28;20031;-46
2022/08/10 13:23:27;;;;;;;7.97;7.50;;;48.40;99.90;;;;;;5112818;28;20448;-48
2022/08/10 13:25:57;;;;;;;7.13;6.63;;;48.80;99.90;;;;;;5113852;28;20355;-46
2022/08/10 13:28:43;;;;;;;7.47;6.82;;;49.60;99.90;;;;;;5112890;28;20160;-46
2022/08/10 13:31:20;;;;;;;7.07;6.65;;;48.70;99.90;;;;;;5113722;28;20027;-49
2022/08/10 13:33:51;;;;;;;6.97;6.57;;;48.90;99.90;;;;;;5108630;28;20055;-48